createdAt,value
2022-12-27T00:01:26.825Z,11.00
2022-12-27T00:06:29.972Z,8.48
2022-12-27T00:11:33.256Z,17.05
2022-12-27T00:16:37.133Z,14.50
2022-12-27T00:21:39.647Z,13.90
2022-12-27T00:26:42.114Z,16.00
2022-12-27T00:31:45.975Z,11.47
2022-12-27T00:36:48.544Z,14.43
2022-12-27T00:41:51.123Z,10.35
2022-12-27T00:46:54.932Z,13.23
2022-12-27T00:51:57.483Z,13.13
2022-12-27T00:57:00.051Z,15.35
2022-12-27T01:02:04.054Z,9.73
2022-12-27T01:07:06.618Z,11.50
2022-12-27T01:12:09.076Z,9.10
2022-12-27T01:17:13.196Z,13.43
2022-12-27T01:22:15.679Z,15.60
2022-12-27T01:27:18.245Z,16.97
2022-12-27T01:32:22.044Z,17.20
2022-12-27T01:37:24.522Z,12.27
2022-12-27T01:42:51.425Z,10.70
2022-12-27T01:48:02.054Z,14.13
2022-12-27T01:53:09.960Z,15.35
2022-12-27T01:58:17.303Z,11.40
2022-12-27T02:03:25.933Z,17.13
2022-12-27T02:08:37.585Z,9.45
2022-12-27T02:13:45.155Z,14.87
2022-12-27T02:18:48.998Z,12.87
2022-12-27T02:24:21.523Z,11.85
2022-12-27T02:29:48.507Z,10.65
2022-12-27T02:34:59.614Z,13.37
2022-12-27T02:40:19.709Z,11.38
2022-12-27T02:45:48.224Z,11.18
2022-12-27T02:51:19.206Z,9.50
2022-12-27T02:56:48.183Z,9.68
2022-12-27T03:02:18.122Z,8.73
2022-12-27T03:07:31.743Z,11.87
2022-12-27T03:13:07.876Z,8.93
2022-12-27T03:18:16.221Z,7.40
2022-12-27T03:23:36.442Z,5.82
2022-12-27T03:28:58.185Z,12.67
2022-12-27T03:34:27.496Z,9.98
2022-12-27T03:39:34.306Z,8.73
2022-12-27T03:44:36.843Z,10.20
2022-12-27T03:49:44.933Z,8.20
2022-12-27T03:54:50.774Z,10.70
2022-12-27T03:59:53.441Z,11.10
2022-12-27T04:04:57.310Z,13.57
2022-12-27T04:10:17.745Z,12.63
2022-12-27T04:15:38.075Z,7.70
2022-12-27T04:20:59.723Z,12.83
2022-12-27T04:26:20.057Z,9.18
2022-12-27T04:31:40.381Z,11.35
2022-12-27T04:36:44.292Z,9.73
2022-12-27T04:42:04.537Z,11.30
2022-12-27T04:47:27.549Z,17.80
2022-12-27T04:52:49.079Z,6.53
2022-12-27T04:57:52.512Z,10.17
2022-12-27T05:02:55.536Z,7.90
2022-12-27T05:08:18.124Z,15.63
2022-12-27T05:13:52.884Z,10.37
2022-12-27T05:18:55.447Z,10.25
2022-12-27T05:24:16.932Z,9.50
2022-12-27T05:29:19.402Z,13.43
2022-12-27T05:34:21.881Z,11.13
2022-12-27T05:39:25.824Z,12.60
2022-12-27T05:44:28.405Z,12.33
2022-12-27T05:49:30.882Z,12.47
2022-12-27T05:54:34.690Z,12.80
2022-12-27T05:59:37.169Z,14.82
2022-12-27T06:04:39.639Z,11.80
2022-12-27T06:09:43.471Z,9.70
2022-12-27T06:14:45.940Z,13.90
2022-12-27T06:19:53.830Z,11.23
2022-12-27T06:25:00.529Z,11.30
2022-12-27T06:30:03.194Z,12.02
2022-12-27T06:35:06.454Z,9.10
2022-12-27T06:40:11.659Z,12.17
2022-12-27T06:45:14.157Z,12.95
2022-12-27T06:50:16.651Z,13.77
2022-12-27T06:55:20.448Z,14.00
2022-12-27T07:00:22.981Z,16.52
2022-12-27T07:05:25.436Z,12.93
2022-12-27T07:10:29.279Z,11.17
2022-12-27T07:15:31.959Z,9.95
2022-12-27T07:20:34.569Z,12.23
2022-12-27T07:25:38.355Z,9.90
2022-12-27T07:30:41.655Z,14.20
2022-12-27T07:35:45.357Z,11.55
2022-12-27T07:40:49.228Z,10.43
2022-12-27T07:45:51.693Z,11.43
2022-12-27T07:50:55.882Z,10.05
2022-12-27T07:55:59.759Z,13.18
2022-12-27T08:01:04.842Z,12.07
2022-12-27T08:06:08.560Z,11.30
2022-12-27T08:11:12.495Z,10.15
2022-12-27T08:16:20.643Z,10.20
2022-12-27T08:21:23.531Z,9.63
2022-12-27T08:26:27.330Z,8.93
2022-12-27T08:31:29.814Z,9.13
2022-12-27T08:41:56.054Z,7.22
2022-12-27T08:46:59.427Z,12.27
2022-12-27T08:52:01.934Z,11.03
2022-12-27T08:57:06.502Z,9.10
2022-12-27T09:02:10.630Z,11.75
2022-12-27T09:07:13.175Z,11.17
2022-12-27T09:12:16.987Z,10.63
2022-12-27T09:17:19.459Z,10.52
2022-12-27T09:22:21.955Z,11.00
2022-12-27T09:27:26.041Z,10.00
2022-12-27T09:32:28.525Z,12.45
2022-12-27T09:37:32.554Z,11.20
2022-12-27T09:42:53.496Z,10.30
2022-12-27T09:48:05.896Z,10.65
2022-12-27T09:53:17.367Z,11.32
2022-12-27T09:58:33.985Z,7.77
2022-12-27T10:03:36.502Z,9.97
2022-12-27T10:08:49.026Z,9.63
2022-12-27T10:13:58.645Z,8.85
2022-12-27T10:19:17.185Z,10.17
2022-12-27T10:24:24.819Z,8.00
2022-12-27T10:29:30.313Z,8.85
2022-12-27T10:34:32.856Z,8.23
2022-12-27T10:39:37.728Z,7.88
2022-12-27T10:44:41.729Z,7.65
2022-12-27T10:50:01.953Z,5.43
2022-12-27T10:55:04.812Z,6.93
2022-12-27T11:00:19.180Z,5.82
2022-12-27T11:05:24.384Z,4.28
2022-12-27T11:10:28.772Z,3.80
2022-12-27T11:15:35.679Z,6.68
2022-12-27T11:20:40.382Z,4.88
2022-12-27T11:25:53.886Z,4.33
2022-12-27T11:31:00.453Z,4.45
2022-12-27T11:36:03.001Z,7.57
2022-12-27T11:41:10.381Z,6.20
2022-12-27T11:46:23.850Z,6.53
2022-12-27T11:52:05.299Z,6.30
2022-12-27T11:57:21.738Z,7.28
2022-12-27T12:02:37.023Z,9.17
2022-12-27T12:07:58.387Z,10.30
2022-12-27T12:13:23.816Z,10.75
2022-12-27T12:18:45.107Z,7.57
2022-12-27T12:24:10.986Z,7.78
2022-12-27T12:29:48.258Z,9.25
2022-12-27T12:35:07.621Z,7.70
2022-12-27T12:40:33.422Z,9.97
2022-12-27T12:46:01.017Z,10.43
2022-12-27T12:51:29.177Z,7.63
2022-12-27T12:56:53.877Z,7.40
2022-12-27T13:02:09.702Z,7.07
2022-12-27T13:07:40.712Z,9.98
2022-12-27T13:12:53.118Z,8.70
2022-12-27T13:18:06.978Z,6.97
2022-12-27T13:23:18.051Z,8.57
2022-12-27T13:28:33.637Z,7.27
2022-12-27T13:33:47.020Z,6.53
2022-12-27T13:39:09.233Z,6.55
2022-12-27T13:44:27.959Z,7.43
2022-12-27T13:49:50.898Z,10.00
2022-12-27T13:55:16.753Z,6.43
2022-12-27T14:00:21.028Z,8.43
2022-12-27T14:06:04.351Z,8.20
2022-12-27T14:11:22.684Z,9.38
2022-12-27T14:16:42.368Z,11.85
2022-12-27T14:21:59.716Z,11.13
2022-12-27T14:27:52.486Z,12.00
2022-12-27T14:33:38.551Z,10.85
2022-12-27T14:39:15.557Z,8.90
2022-12-27T14:45:06.179Z,9.77
2022-12-27T14:50:43.276Z,12.27
2022-12-27T14:55:59.468Z,10.75
2022-12-27T15:01:13.077Z,11.23
2022-12-27T15:06:27.550Z,36.92
2022-12-27T15:11:52.982Z,29.73
2022-12-27T15:17:05.788Z,23.67
2022-12-27T15:22:20.953Z,51.47
2022-12-27T15:27:30.104Z,137.18
2022-12-27T15:32:46.977Z,103.35
2022-12-27T15:38:03.723Z,179.70
2022-12-27T15:43:16.158Z,82.85
2022-12-27T15:48:47.203Z,22.08
2022-12-27T15:54:21.298Z,36.20
2022-12-27T15:59:42.244Z,66.00
2022-12-27T16:04:50.257Z,87.68
2022-12-27T16:09:54.590Z,25.33
2022-12-27T16:15:30.608Z,59.57
2022-12-27T16:20:33.830Z,159.38
2022-12-27T16:25:39.134Z,138.02
2022-12-27T16:30:45.697Z,115.53
2022-12-27T16:36:07.652Z,104.22
2022-12-27T16:41:22.201Z,34.75
2022-12-27T16:46:45.810Z,33.43
2022-12-27T16:52:03.760Z,75.30
2022-12-27T16:57:40.302Z,53.67
2022-12-27T17:02:46.438Z,102.27
2022-12-27T17:07:51.954Z,54.60
2022-12-27T17:13:00.423Z,38.78
2022-12-27T17:18:13.508Z,35.05
2022-12-27T17:23:16.304Z,19.63
2022-12-27T17:28:28.327Z,18.42
2022-12-27T17:33:41.300Z,20.70
2022-12-27T17:38:56.271Z,15.50
2022-12-27T17:44:24.894Z,23.25
2022-12-27T17:49:30.018Z,22.13
2022-12-27T17:54:50.746Z,18.70
2022-12-27T17:59:55.797Z,21.63
2022-12-27T18:05:01.100Z,23.42
2022-12-27T18:10:08.007Z,20.13
2022-12-27T18:15:16.645Z,15.23
2022-12-27T18:20:37.594Z,20.95
2022-12-27T18:25:58.339Z,16.92
2022-12-27T18:31:07.452Z,18.57
2022-12-27T18:36:14.603Z,16.95
2022-12-27T18:41:38.144Z,13.35
2022-12-27T18:46:49.869Z,13.33
2022-12-27T18:52:03.321Z,15.67
2022-12-27T18:57:22.196Z,15.80
2022-12-27T19:03:07.830Z,20.05
2022-12-27T19:08:37.094Z,14.57
2022-12-27T19:14:05.150Z,16.25
2022-12-27T19:19:47.986Z,33.30
2022-12-27T19:25:37.619Z,24.47
2022-12-27T19:31:24.468Z,17.20
2022-12-27T19:36:44.072Z,19.63
2022-12-27T19:42:01.351Z,16.93
2022-12-27T19:52:32.629Z,25.35
2022-12-27T19:57:35.922Z,16.90
2022-12-27T20:02:38.673Z,20.73
2022-12-27T20:07:42.906Z,21.07
2022-12-27T20:12:45.538Z,17.73
2022-12-27T20:17:48.505Z,30.98
2022-12-27T20:22:52.364Z,37.73
2022-12-27T20:27:54.926Z,39.92
2022-12-27T20:32:57.715Z,31.40
2022-12-27T20:38:01.920Z,30.53
2022-12-27T20:43:04.470Z,24.02
2022-12-27T20:48:09.202Z,20.05
2022-12-27T20:53:13.165Z,21.13
2022-12-27T20:58:15.753Z,18.53
2022-12-27T21:03:18.435Z,21.05
2022-12-27T21:08:22.380Z,24.15
2022-12-27T21:13:24.905Z,20.97
2022-12-27T21:18:27.505Z,18.75
2022-12-27T21:23:33.342Z,23.27
2022-12-27T21:28:37.126Z,20.83
2022-12-27T21:33:39.744Z,22.17
2022-12-27T21:38:44.528Z,25.80
2022-12-27T21:43:48.825Z,26.70
2022-12-27T21:48:55.964Z,27.23
2022-12-27T21:54:00.318Z,27.08
2022-12-27T21:59:05.437Z,25.45
2022-12-27T22:04:08.585Z,24.73
2022-12-27T22:09:12.729Z,31.50
2022-12-27T22:14:15.355Z,29.65
2022-12-27T22:19:17.910Z,24.97
2022-12-27T22:24:21.760Z,29.20
2022-12-27T22:29:24.732Z,30.23
2022-12-27T22:34:27.462Z,28.53
2022-12-27T22:39:32.479Z,26.53
2022-12-27T22:44:34.975Z,26.85
2022-12-27T22:49:37.475Z,33.13
2022-12-27T22:55:03.999Z,30.23
2022-12-27T23:00:06.536Z,28.38
2022-12-27T23:05:09.483Z,33.08
2022-12-27T23:10:13.469Z,28.60
2022-12-27T23:15:16.022Z,28.48
2022-12-27T23:20:18.815Z,29.02
2022-12-27T23:25:22.768Z,27.07
2022-12-27T23:30:25.290Z,28.23
2022-12-27T23:35:27.828Z,30.25
2022-12-27T23:40:31.790Z,29.77
2022-12-27T23:45:34.580Z,31.07
2022-12-27T23:50:37.124Z,28.60
2022-12-27T23:55:41.109Z,26.45
